»·PEaware :: N225 KELP-KCOS

N225 :: KELP-KCOS

FLIGHT INFORMATION

Flight Status: Arrived
Operator: Privately registered:
United States
More flights under this callsign
Pilot: Gabriel M. (29612)
Aircraft: PILATUS PC-12 EAGLE
(PC12)
More flights by this aircraft type
Origin: KELP El Paso Intl
United States
Destination: KCOS City Of Colorado Springs Mun
United States
More flights between these airports :: More routes between these airports
Route: +
File this flight plan on PilotEdge
Remarks:
Altitude:
(Current/Filed)
17,500ft
Speed:
(Current/Filed)
0kts
Departed: 22-May-20 05:24 PM
Arrived: 22-May-20 07:10 PM
Distance/Time
Traveled:
428nm/1:46
Distance/Time
To Go:
Arrived

Flight Plot

Page will automatically refresh every two minutes.


Map Options




Map Legend


Flown Route
Filed Route
Departure Airport
Arrival Airport
Navaid (VOR, NDB)
Fix

Horizontal Profiles

Position Reports

Time Latitude Longitude Heading Altitude Ground
Speed
22-May-20 17:15 31.798074 -106.377241 312 3940ft 0kts
22-May-20 17:16 31.798074 -106.377241 312 3940ft 0kts
22-May-20 17:17 31.798102 -106.377277 313 3940ft 3kts
22-May-20 17:18 31.799753 -106.375276 94 3943ft 11kts
22-May-20 17:19 31.799544 -106.371176 92 3948ft 14kts
22-May-20 17:20 31.799272 -106.365687 91 3954ft 19kts
22-May-20 17:21 31.799184 -106.360453 30 3945ft 11kts
22-May-20 17:23 31.800104 -106.360362 2 3944ft 14kts
22-May-20 17:24 31.802120 -106.388485 271 4436ft 152kts
22-May-20 17:25 31.773613 -106.422314 209 6629ft 167kts
22-May-20 17:26 31.723554 -106.448158 192 6833ft 207kts
22-May-20 17:27 31.687845 -106.430365 84 8921ft 179kts
22-May-20 17:28 31.723342 -106.426835 317 10816ft 168kts
22-May-20 17:29 31.771764 -106.419493 9 12541ft 186kts
22-May-20 17:30 31.822861 -106.406945 5 14242ft 189kts
22-May-20 17:31 31.874682 -106.395743 5 15937ft 191kts
22-May-20 17:32 31.927290 -106.383852 5 17462ft 204kts
22-May-20 17:33 31.991969 -106.370167 5 17493ft 259kts
22-May-20 17:34 32.065206 -106.353643 6 17491ft 275kts
22-May-20 17:35 32.141201 -106.337005 6 17488ft 279kts
22-May-20 17:36 32.217435 -106.320336 6 17488ft 279kts
22-May-20 17:37 32.293783 -106.302681 7 17489ft 280kts
22-May-20 17:38 32.370191 -106.284369 7 17490ft 280kts
22-May-20 17:39 32.446654 -106.266035 7 17491ft 280kts
22-May-20 17:39 32.510135 -106.250782 7 17510ft 280kts
22-May-20 17:40 32.586980 -106.234846 5 17509ft 280kts
22-May-20 17:42 32.676451 -106.215733 6 17508ft 280kts
22-May-20 17:42 32.740107 -106.201739 6 17508ft 280kts
22-May-20 17:43 32.816735 -106.184425 7 17508ft 281kts
22-May-20 17:45 32.905994 -106.162903 7 17509ft 281kts
22-May-20 17:45 32.969871 -106.147529 7 17509ft 281kts
22-May-20 17:46 33.046882 -106.130547 6 17510ft 283kts
22-May-20 17:47 33.125117 -106.112674 7 17506ft 288kts
22-May-20 17:48 33.203961 -106.094686 7 17507ft 290kts
22-May-20 17:49 33.282807 -106.071937 5 17512ft 290kts
22-May-20 17:50 33.362239 -106.056041 7 17584ft 289kts
22-May-20 17:51 33.441109 -106.037863 7 17655ft 289kts
22-May-20 17:52 33.520347 -106.019565 7 17664ft 290kts
22-May-20 17:53 33.599563 -106.001258 7 17664ft 291kts
22-May-20 17:54 33.679249 -105.982871 7 17665ft 291kts
22-May-20 17:55 33.758979 -105.964434 7 17665ft 291kts
22-May-20 17:56 33.838528 -105.946016 7 17666ft 292kts
22-May-20 17:57 33.918295 -105.927563 7 17666ft 292kts
22-May-20 17:58 33.997951 -105.909101 7 17645ft 292kts
22-May-20 17:59 34.077819 -105.890594 7 17632ft 292kts
22-May-20 18:00 34.157657 -105.872090 7 17656ft 291kts
22-May-20 18:01 34.237196 -105.853590 7 17670ft 291kts
22-May-20 18:02 34.316668 -105.835076 7 17682ft 291kts
22-May-20 18:03 34.395959 -105.815503 8 17682ft 291kts
22-May-20 18:04 34.475645 -105.795730 7 17623ft 293kts
22-May-20 18:05 34.555773 -105.777095 7 17545ft 294kts
22-May-20 18:06 34.635789 -105.757194 8 17525ft 293kts
22-May-20 18:07 34.715579 -105.737012 8 17520ft 292kts
22-May-20 18:08 34.795047 -105.717706 7 17541ft 291kts
22-May-20 18:09 34.874864 -105.699068 7 17558ft 292kts
22-May-20 18:10 34.954472 -105.680174 7 17579ft 292kts
22-May-20 18:11 35.034921 -105.660397 7 17511ft 294kts
22-May-20 18:12 35.115302 -105.640313 6 17509ft 294kts
22-May-20 18:13 35.195628 -105.621669 6 17509ft 293kts
22-May-20 18:14 35.275696 -105.603094 6 17513ft 293kts
22-May-20 18:15 35.355838 -105.584493 6 17518ft 293kts
22-May-20 18:16 35.436006 -105.565841 6 17528ft 293kts
22-May-20 18:17 35.516051 -105.544781 8 17529ft 294kts
22-May-20 18:18 35.596306 -105.523352 6 17530ft 294kts
22-May-20 18:19 35.676714 -105.504477 7 17530ft 294kts
22-May-20 18:20 35.756894 -105.484133 7 17531ft 294kts
22-May-20 18:21 35.837179 -105.463726 7 17531ft 294kts
22-May-20 18:22 35.917343 -105.443960 6 17536ft 294kts
22-May-20 18:23 35.997769 -105.425092 6 17539ft 294kts
22-May-20 18:24 36.078142 -105.406215 6 17569ft 294kts
22-May-20 18:25 36.158500 -105.387287 6 17605ft 293kts
22-May-20 18:26 36.238514 -105.367980 7 17617ft 293kts
22-May-20 18:27 36.318666 -105.347430 7 17617ft 294kts
22-May-20 18:28 36.398653 -105.326928 7 17561ft 294kts
22-May-20 18:29 36.478620 -105.306469 7 17562ft 293kts
22-May-20 18:30 36.558764 -105.285998 7 17562ft 293kts
22-May-20 18:31 36.638425 -105.265584 7 17563ft 293kts
22-May-20 18:32 36.718418 -105.245036 7 17563ft 293kts
22-May-20 18:33 36.798334 -105.224481 7 17564ft 293kts
22-May-20 18:34 36.878215 -105.203938 7 17564ft 293kts
22-May-20 18:35 36.958191 -105.183333 7 17565ft 293kts
22-May-20 18:36 37.038102 -105.162555 7 17557ft 293kts
22-May-20 18:37 37.117715 -105.141664 7 17585ft 290kts
22-May-20 18:38 37.196760 -105.120670 7 17556ft 290kts
22-May-20 18:39 37.275834 -105.099925 7 17498ft 291kts
22-May-20 18:40 37.355382 -105.079716 7 17478ft 291kts
22-May-20 18:41 37.434743 -105.060193 7 17468ft 291kts
22-May-20 18:42 37.510455 -105.024526 27 17452ft 295kts
22-May-20 18:43 37.582644 -104.975553 27 17426ft 295kts
22-May-20 18:44 37.655303 -104.927753 25 17381ft 295kts
22-May-20 18:45 37.734343 -104.899426 14 17079ft 302kts
22-May-20 18:46 37.817559 -104.881165 7 16421ft 301kts
22-May-20 18:47 37.900768 -104.869755 0 15635ft 301kts
22-May-20 18:48 37.982089 -104.868218 0 14840ft 275kts
22-May-20 18:49 38.054926 -104.863871 3 14005ft 254kts
22-May-20 18:50 38.124682 -104.859082 3 13108ft 249kts
22-May-20 18:51 38.193094 -104.851942 6 12195ft 245kts
22-May-20 18:52 38.260707 -104.843759 7 11285ft 243kts
22-May-20 18:53 38.327664 -104.831696 9 10379ft 250kts
22-May-20 18:54 38.400124 -104.820270 7 9484ft 270kts
22-May-20 18:55 38.474915 -104.807947 7 8583ft 272kts
22-May-20 18:56 38.540531 -104.775081 38 8457ft 248kts
22-May-20 18:57 38.594917 -104.722526 38 8468ft 242kts
22-May-20 18:58 38.640450 -104.663141 72 8484ft 233kts
22-May-20 18:59 38.691939 -104.621405 8 8504ft 244kts
22-May-20 19:00 38.759426 -104.611687 7 8524ft 243kts
22-May-20 19:01 38.823549 -104.606694 5 8534ft 194kts
22-May-20 19:02 38.874699 -104.604152 3 8066ft 187kts
22-May-20 19:03 38.919685 -104.615318 288 8072ft 161kts
22-May-20 19:04 38.929795 -104.668595 276 8043ft 158kts
22-May-20 19:05 38.930453 -104.721571 194 7935ft 142kts
22-May-20 19:06 38.896457 -104.715713 176 7855ft 116kts
22-May-20 19:07 38.864560 -104.715802 174 7163ft 111kts
22-May-20 19:08 38.833446 -104.715873 177 6400ft 114kts
22-May-20 19:09 38.812598 -104.717092 266 6112ft 0kts
22-May-20 19:10 38.812598 -104.717092 266 6112ft 0kts
22-May-20 19:11 38.812597 -104.717122 268 6112ft 2kts
22-May-20 19:12 38.811945 -104.719521 178 6107ft 11kts
22-May-20 19:13 38.808906 -104.720129 270 6092ft 10kts
22-May-20 19:14 38.808923 -104.720356 353 6092ft 0kts
22-May-20 19:15 38.808923 -104.720356 353 6092ft 0kts
22-May-20 19:16 38.808923 -104.720356 353 6092ft 0kts
22-May-20 19:18 38.808923 -104.720356 353 6092ft 0kts
22-May-20 19:19 38.808923 -104.720356 353 6092ft 0kts
22-May-20 19:20 38.808923 -104.720356 353 6092ft 0kts
22-May-20 19:21 38.808923 -104.720356 353 6092ft 0kts
22-May-20 19:22 38.808923 -104.720356 353 6092ft 0kts
22-May-20 19:23 38.808923 -104.720356 353 6092ft 0kts
22-May-20 19:24 38.808923 -104.720356 353 6092ft 0kts

Navigation Log

Ident Type
Flight plan parsing failed, navigation log unavailable